createdAt,value
2018-12-14T00:00:31.987Z,375.53
2018-12-14T00:03:01.215Z,395.13
2018-12-14T00:05:30.200Z,431.53
2018-12-14T00:07:58.931Z,402.90
2018-12-14T00:10:27.680Z,373.13
2018-12-14T00:12:56.406Z,396.73
2018-12-14T00:15:25.473Z,359.43
2018-12-14T00:17:55.087Z,339.97
2018-12-14T00:20:23.796Z,288.00
2018-12-14T00:22:52.686Z,270.43
2018-12-14T00:25:21.474Z,278.07
2018-12-14T00:27:50.263Z,275.60
2018-12-14T00:30:18.903Z,263.57
2018-12-14T00:32:48.073Z,275.13
2018-12-14T00:35:17.551Z,319.73
2018-12-14T00:37:46.235Z,328.97
2018-12-14T00:40:15.092Z,346.73
2018-12-14T00:42:43.852Z,349.77
2018-12-14T00:45:12.748Z,338.33
2018-12-14T00:47:41.426Z,320.97
2018-12-14T00:50:10.583Z,340.00
2018-12-14T00:52:39.306Z,282.27
2018-12-14T00:55:08.657Z,284.57
2018-12-14T00:57:37.588Z,270.63
2018-12-14T01:00:08.400Z,247.00
2018-12-14T01:02:37.193Z,244.67
2018-12-14T01:05:06.987Z,215.97
2018-12-14T01:07:35.634Z,170.87
2018-12-14T01:10:04.812Z,154.03
2018-12-14T01:12:33.432Z,154.37
2018-12-14T01:15:02.253Z,153.83
2018-12-14T01:17:31.041Z,123.33
2018-12-14T01:19:59.668Z,112.40
2018-12-14T01:22:28.344Z,113.57
2018-12-14T01:24:56.968Z,114.33
2018-12-14T01:27:25.682Z,101.83
2018-12-14T01:29:54.398Z,87.77
2018-12-14T01:32:23.012Z,95.20
2018-12-14T01:34:51.740Z,92.70
2018-12-14T01:37:20.456Z,83.60
2018-12-14T01:39:50.028Z,73.80
2018-12-14T01:42:18.767Z,79.90
2018-12-14T01:44:47.382Z,71.83
2018-12-14T01:47:16.241Z,73.80
2018-12-14T01:49:44.927Z,70.90
2018-12-14T01:52:13.538Z,69.70
2018-12-14T01:54:42.251Z,55.57
2018-12-14T01:57:10.832Z,51.40
2018-12-14T01:59:39.725Z,49.30
2018-12-14T02:02:08.346Z,45.60
2018-12-14T02:04:36.961Z,46.53
2018-12-14T02:07:05.623Z,45.43
2018-12-14T02:09:34.741Z,49.40
2018-12-14T02:12:03.560Z,49.77
2018-12-14T02:14:32.246Z,48.37
2018-12-14T02:17:00.858Z,34.47
2018-12-14T02:19:29.540Z,34.00
2018-12-14T02:21:58.405Z,38.87
2018-12-14T02:24:27.091Z,36.40
2018-12-14T02:26:55.835Z,34.80
2018-12-14T02:29:24.568Z,31.67
2018-12-14T02:31:53.249Z,37.07
2018-12-14T02:34:22.270Z,33.00
2018-12-14T02:36:51.240Z,34.40
2018-12-14T02:39:20.157Z,35.23
2018-12-14T02:41:48.763Z,35.30
2018-12-14T02:44:17.314Z,34.30
2018-12-14T02:46:46.376Z,34.13
2018-12-14T02:49:15.407Z,36.33
2018-12-14T02:51:44.093Z,37.00
2018-12-14T02:54:12.749Z,35.77
2018-12-14T02:56:41.545Z,34.93
2018-12-14T02:59:10.119Z,33.50
2018-12-14T03:01:38.950Z,34.70
2018-12-14T03:04:07.545Z,36.43
2018-12-14T03:06:36.327Z,35.53
2018-12-14T03:09:06.695Z,34.90
2018-12-14T03:11:35.294Z,35.00
2018-12-14T03:14:03.951Z,37.17
2018-12-14T03:16:32.584Z,38.77
2018-12-14T03:19:01.239Z,37.70
2018-12-14T03:21:30.094Z,42.47
2018-12-14T03:23:59.574Z,40.17
2018-12-14T03:26:28.228Z,40.30
2018-12-14T03:28:56.951Z,40.57
2018-12-14T03:31:26.011Z,40.53
2018-12-14T03:33:54.606Z,41.23
2018-12-14T03:36:23.495Z,39.40
2018-12-14T03:38:52.219Z,37.50
2018-12-14T03:41:21.061Z,36.47
2018-12-14T03:43:49.664Z,43.60
2018-12-14T03:46:18.584Z,41.97
2018-12-14T03:48:47.329Z,45.17
2018-12-14T03:51:18.100Z,40.00
2018-12-14T03:53:46.795Z,47.00
2018-12-14T03:56:15.655Z,44.07
2018-12-14T03:58:44.478Z,42.30
2018-12-14T04:01:13.289Z,40.77
2018-12-14T04:03:42.356Z,44.73
2018-12-14T04:06:11.097Z,40.37
2018-12-14T04:08:39.881Z,41.00
2018-12-14T04:11:09.038Z,45.20
2018-12-14T04:13:37.803Z,45.07
2018-12-14T04:16:06.525Z,44.87
2018-12-14T04:18:35.265Z,45.30
2018-12-14T04:21:04.151Z,43.67
2018-12-14T04:23:33.012Z,46.67
2018-12-14T04:26:01.626Z,43.77
2018-12-14T04:28:30.327Z,41.80
2018-12-14T04:30:59.287Z,42.97
2018-12-14T04:33:28.497Z,52.40
2018-12-14T04:35:57.450Z,51.13
2018-12-14T04:38:26.364Z,50.67
2018-12-14T04:40:55.161Z,45.80
2018-12-14T04:43:24.048Z,56.00
2018-12-14T04:45:52.733Z,48.97
2018-12-14T04:48:21.410Z,50.17
2018-12-14T04:50:50.209Z,51.40
2018-12-14T04:53:18.852Z,49.87
2018-12-14T04:55:47.712Z,52.30
2018-12-14T04:58:17.424Z,58.80
2018-12-14T05:00:46.384Z,54.47
2018-12-14T05:03:15.276Z,58.77
2018-12-14T05:05:44.007Z,56.20
2018-12-14T05:08:12.715Z,52.83
2018-12-14T05:10:41.338Z,53.30
2018-12-14T05:13:09.959Z,49.87
2018-12-14T05:15:38.572Z,51.47
2018-12-14T05:18:07.384Z,50.13
2018-12-14T05:20:37.095Z,52.90
2018-12-14T05:23:05.860Z,53.13
2018-12-14T05:25:34.437Z,48.93
2018-12-14T05:28:03.153Z,48.67
2018-12-14T05:30:32.142Z,46.00
2018-12-14T05:33:00.802Z,46.97
2018-12-14T05:35:29.487Z,47.87
2018-12-14T05:37:58.040Z,46.97
2018-12-14T05:40:26.577Z,48.57
2018-12-14T05:42:55.587Z,45.47
2018-12-14T05:45:24.366Z,48.30
2018-12-14T05:47:53.014Z,44.20
2018-12-14T05:50:21.868Z,43.07
2018-12-14T05:52:50.646Z,47.97
2018-12-14T05:55:19.285Z,47.17
2018-12-14T05:57:47.822Z,44.93
2018-12-14T06:00:16.477Z,43.77
2018-12-14T06:02:45.368Z,53.53
2018-12-14T06:05:14.082Z,45.83
2018-12-14T06:07:42.678Z,47.67
2018-12-14T06:10:11.337Z,43.90
2018-12-14T06:12:40.001Z,45.07
2018-12-14T06:15:08.732Z,45.23
2018-12-14T06:17:37.479Z,40.87
2018-12-14T06:20:07.374Z,41.50
2018-12-14T06:22:36.015Z,39.77
2018-12-14T06:25:05.379Z,42.20
2018-12-14T06:27:34.336Z,39.03
2018-12-14T06:30:03.277Z,38.13
2018-12-14T06:32:33.013Z,39.17
2018-12-14T06:35:01.576Z,41.10
2018-12-14T06:37:30.622Z,37.90
2018-12-14T06:39:59.307Z,39.73
2018-12-14T06:42:27.901Z,49.70
2018-12-14T06:44:57.219Z,46.13
2018-12-14T06:47:27.338Z,37.37
2018-12-14T06:49:56.146Z,37.03
2018-12-14T06:52:24.862Z,37.57
2018-12-14T06:54:53.776Z,35.67
2018-12-14T06:57:22.797Z,38.50
2018-12-14T06:59:51.585Z,41.53
2018-12-14T07:02:20.309Z,41.60
2018-12-14T07:04:49.423Z,60.40
2018-12-14T07:07:17.979Z,109.87
2018-12-14T07:09:46.760Z,57.90
2018-12-14T07:12:15.316Z,42.07
2018-12-14T07:14:43.939Z,39.50
2018-12-14T07:17:12.735Z,47.97
2018-12-14T07:19:42.055Z,42.73
2018-12-14T07:22:10.821Z,37.80
2018-12-14T07:24:39.464Z,40.80
2018-12-14T07:27:09.334Z,44.17
2018-12-14T07:29:38.063Z,40.00
2018-12-14T07:32:07.000Z,42.20
2018-12-14T07:34:35.599Z,39.30
2018-12-14T07:37:04.387Z,39.43
2018-12-14T07:39:33.040Z,41.30
2018-12-14T07:42:01.798Z,35.73
2018-12-14T07:44:30.581Z,41.60
2018-12-14T07:46:59.890Z,40.43
2018-12-14T07:49:28.573Z,34.47
2018-12-14T07:51:57.361Z,36.77
2018-12-14T07:54:26.064Z,36.97
2018-12-14T07:56:55.710Z,41.47
2018-12-14T07:59:24.735Z,36.83
2018-12-14T08:01:53.640Z,59.57
2018-12-14T08:04:23.190Z,46.33
2018-12-14T08:06:51.758Z,41.13
2018-12-14T08:09:20.651Z,42.37
2018-12-14T08:11:49.263Z,73.10
2018-12-14T08:14:17.994Z,52.20
2018-12-14T08:16:46.866Z,46.00
2018-12-14T08:19:15.467Z,45.87
2018-12-14T08:21:44.228Z,39.33
2018-12-14T08:24:12.979Z,38.20
2018-12-14T08:26:41.889Z,44.53
2018-12-14T08:29:10.545Z,42.70
2018-12-14T08:31:39.302Z,40.43
2018-12-14T08:34:07.874Z,40.37
2018-12-14T08:36:36.493Z,44.57
2018-12-14T08:39:07.058Z,39.00
2018-12-14T08:41:35.747Z,38.60
2018-12-14T08:44:04.993Z,33.77
2018-12-14T08:46:34.854Z,33.10
2018-12-14T08:49:03.702Z,34.87
2018-12-14T08:51:32.303Z,38.43
2018-12-14T08:54:00.915Z,36.50
2018-12-14T08:56:29.642Z,33.83
2018-12-14T08:58:58.260Z,36.33
2018-12-14T09:01:27.074Z,36.07
2018-12-14T09:03:55.881Z,31.57
2018-12-14T09:06:24.794Z,34.33
2018-12-14T09:08:53.516Z,30.13
2018-12-14T09:11:22.209Z,28.67
2018-12-14T09:13:50.756Z,31.67
2018-12-14T09:16:19.537Z,34.27
2018-12-14T09:18:48.231Z,32.27
2018-12-14T09:21:17.356Z,33.00
2018-12-14T09:23:46.107Z,34.03
2018-12-14T09:26:14.676Z,39.77
2018-12-14T09:28:43.586Z,37.73
2018-12-14T09:31:12.269Z,34.60
2018-12-14T09:33:41.002Z,34.20
2018-12-14T09:36:09.843Z,34.87
2018-12-14T09:38:38.698Z,38.83
2018-12-14T09:41:07.624Z,31.80
2018-12-14T09:43:36.219Z,31.20
2018-12-14T09:46:05.441Z,37.30
2018-12-14T09:48:34.294Z,34.20
2018-12-14T09:51:03.197Z,32.70
2018-12-14T09:53:31.733Z,34.63
2018-12-14T09:56:01.252Z,35.83
2018-12-14T09:58:29.869Z,36.43
2018-12-14T10:00:58.651Z,35.77
2018-12-14T10:03:27.348Z,37.47
2018-12-14T10:05:56.578Z,37.03
2018-12-14T10:08:25.712Z,39.40
2018-12-14T10:10:54.727Z,40.77
2018-12-14T10:13:24.108Z,43.07
2018-12-14T10:15:53.913Z,35.23
2018-12-14T10:18:22.724Z,31.30
2018-12-14T10:20:51.508Z,30.07
2018-12-14T10:23:20.219Z,30.07
2018-12-14T10:25:48.882Z,32.80
2018-12-14T10:28:18.491Z,32.83
2018-12-14T10:30:47.173Z,36.80
2018-12-14T10:33:15.831Z,33.70
2018-12-14T10:35:44.426Z,33.73
2018-12-14T10:38:13.047Z,31.77
2018-12-14T10:40:42.021Z,36.47
2018-12-14T10:43:10.631Z,41.23
2018-12-14T10:45:39.592Z,33.80
2018-12-14T10:48:08.145Z,44.30
2018-12-14T10:50:39.753Z,40.60
2018-12-14T10:53:12.922Z,52.50
2018-12-14T10:55:41.914Z,32.00
2018-12-14T10:58:10.703Z,30.53
2018-12-14T11:00:44.896Z,33.83
2018-12-14T11:03:13.452Z,25.77
2018-12-14T11:05:42.015Z,26.63
2018-12-14T11:08:10.668Z,34.20
2018-12-14T11:10:39.355Z,29.27
2018-12-14T11:13:08.198Z,30.97
2018-12-14T11:15:36.778Z,26.27
2018-12-14T11:18:05.364Z,34.10
2018-12-14T11:20:34.587Z,30.27
2018-12-14T11:23:03.295Z,29.00
2018-12-14T11:25:32.067Z,27.17
2018-12-14T11:28:00.792Z,29.57
2018-12-14T11:30:29.437Z,32.30
2018-12-14T11:32:58.041Z,27.13
2018-12-14T11:35:26.928Z,31.37
2018-12-14T11:37:55.607Z,30.47
2018-12-14T11:40:24.282Z,28.57
2018-12-14T11:42:52.867Z,26.17
2018-12-14T11:45:21.512Z,26.10
2018-12-14T11:47:50.258Z,22.47
2018-12-14T11:50:19.115Z,23.47
2018-12-14T11:52:48.639Z,23.37
2018-12-14T11:55:17.502Z,23.40
2018-12-14T11:57:46.224Z,22.70
2018-12-14T12:00:15.218Z,25.33
2018-12-14T12:02:43.845Z,25.93
2018-12-14T12:05:12.623Z,26.63
2018-12-14T12:07:42.464Z,28.40
2018-12-14T12:10:11.505Z,37.93
2018-12-14T12:12:40.462Z,37.83
2018-12-14T12:15:09.711Z,33.50
2018-12-14T12:17:39.596Z,35.27
2018-12-14T12:20:09.325Z,32.13
2018-12-14T12:22:38.093Z,36.43
2018-12-14T12:25:06.729Z,35.47
2018-12-14T12:27:35.574Z,37.40
2018-12-14T12:30:05.046Z,38.10
2018-12-14T12:32:34.040Z,36.50
2018-12-14T12:35:02.591Z,39.80
2018-12-14T12:37:31.343Z,35.57
2018-12-14T12:40:00.094Z,37.83
2018-12-14T12:42:28.693Z,36.97
2018-12-14T12:44:57.350Z,35.80
2018-12-14T12:47:26.088Z,34.97
2018-12-14T12:49:54.822Z,42.63
2018-12-14T12:52:23.480Z,38.47
2018-12-14T12:54:52.343Z,46.50
2018-12-14T12:57:21.242Z,45.50
2018-12-14T12:59:49.898Z,45.73
2018-12-14T13:02:18.550Z,45.00
2018-12-14T13:04:47.603Z,67.10
2018-12-14T13:07:16.762Z,60.83
2018-12-14T13:09:45.539Z,123.93
2018-12-14T13:12:14.375Z,230.60
2018-12-14T13:14:43.286Z,140.10
2018-12-14T13:17:12.185Z,90.67
2018-12-14T13:19:41.059Z,79.70
2018-12-14T13:22:09.939Z,153.73
2018-12-14T13:24:38.729Z,91.33
2018-12-14T13:27:07.328Z,65.07
2018-12-14T13:29:36.787Z,65.97
2018-12-14T13:32:05.732Z,76.23
2018-12-14T13:34:34.492Z,76.93
2018-12-14T13:37:03.539Z,61.20
2018-12-14T13:39:32.333Z,74.80
2018-12-14T13:42:01.122Z,41.97
2018-12-14T13:44:30.185Z,43.90
2018-12-14T13:46:59.067Z,44.90
2018-12-14T13:49:27.798Z,57.07
2018-12-14T13:51:56.614Z,39.27
2018-12-14T13:54:25.408Z,38.07
2018-12-14T13:56:54.016Z,36.43
2018-12-14T13:59:22.861Z,40.50
2018-12-14T14:01:51.672Z,36.47
2018-12-14T14:04:20.228Z,36.67
2018-12-14T14:06:48.999Z,41.20
2018-12-14T14:09:17.677Z,41.63
2018-12-14T14:11:46.264Z,41.43
2018-12-14T14:14:15.011Z,41.07
2018-12-14T14:16:43.785Z,67.23
2018-12-14T14:19:12.700Z,39.57
2018-12-14T14:21:41.483Z,43.00
2018-12-14T14:24:10.570Z,39.97
2018-12-14T14:26:44.481Z,50.33
2018-12-14T14:29:10.512Z,41.30
2018-12-14T14:31:39.437Z,42.53
2018-12-14T14:34:08.272Z,45.70
2018-12-14T14:36:37.005Z,46.50
2018-12-14T14:39:07.355Z,46.57
2018-12-14T14:41:36.320Z,39.47
2018-12-14T14:44:05.076Z,41.03
2018-12-14T14:46:33.636Z,42.10
2018-12-14T14:49:03.372Z,41.50
2018-12-14T14:51:32.566Z,39.93
2018-12-14T14:54:01.411Z,42.80
2018-12-14T14:56:31.173Z,51.80
2018-12-14T14:58:59.839Z,49.23
2018-12-14T15:01:28.570Z,45.60
2018-12-14T15:03:57.347Z,46.50
2018-12-14T15:06:26.105Z,50.97
2018-12-14T15:08:55.446Z,47.97
2018-12-14T15:11:24.042Z,48.17
2018-12-14T15:13:52.570Z,55.00
2018-12-14T15:16:21.425Z,59.63
2018-12-14T15:18:50.249Z,55.43
2018-12-14T15:21:18.917Z,54.60
2018-12-14T15:23:47.707Z,56.37
2018-12-14T15:26:16.409Z,57.53
2018-12-14T15:28:45.445Z,56.97
2018-12-14T15:31:14.394Z,48.87
2018-12-14T15:33:43.118Z,46.47
2018-12-14T15:36:12.175Z,47.00
2018-12-14T15:38:40.949Z,47.07
2018-12-14T15:41:09.783Z,50.13
2018-12-14T15:43:38.848Z,49.07
2018-12-14T15:46:08.453Z,52.20
2018-12-14T15:48:37.311Z,54.97
2018-12-14T15:51:05.874Z,55.20
2018-12-14T15:53:34.716Z,58.43
2018-12-14T15:56:03.373Z,56.33
2018-12-14T15:58:32.386Z,54.63
2018-12-14T16:01:01.490Z,52.97
2018-12-14T16:03:30.639Z,56.20
2018-12-14T16:05:59.634Z,63.20
2018-12-14T16:08:29.393Z,62.07
2018-12-14T16:10:58.176Z,65.47
2018-12-14T16:13:27.105Z,63.57
2018-12-14T16:15:56.007Z,63.27
2018-12-14T16:18:25.158Z,70.67
2018-12-14T16:20:54.057Z,68.20
2018-12-14T16:23:23.042Z,70.37
2018-12-14T16:25:51.835Z,76.23
2018-12-14T16:28:20.754Z,95.97
2018-12-14T16:30:49.719Z,85.97
2018-12-14T16:33:18.505Z,86.53
2018-12-14T16:35:47.323Z,91.73
2018-12-14T16:38:15.948Z,86.33
2018-12-14T16:40:44.719Z,89.83
2018-12-14T16:43:13.604Z,91.00
2018-12-14T16:45:42.370Z,84.23
2018-12-14T16:48:11.130Z,86.07
2018-12-14T16:50:40.395Z,85.40
2018-12-14T16:53:09.153Z,84.33
2018-12-14T16:55:39.155Z,80.73
2018-12-14T16:58:09.147Z,87.23
2018-12-14T17:00:37.942Z,87.67
2018-12-14T17:03:07.028Z,85.17
2018-12-14T17:05:35.924Z,87.90
2018-12-14T17:08:04.610Z,85.33
2018-12-14T17:10:33.710Z,94.57
2018-12-14T17:13:02.625Z,107.20
2018-12-14T17:15:33.424Z,105.77
2018-12-14T17:18:01.986Z,97.60
2018-12-14T17:20:30.546Z,102.93
2018-12-14T17:22:59.441Z,105.43
2018-12-14T17:25:28.276Z,112.43
2018-12-14T17:27:57.262Z,112.57
2018-12-14T17:30:26.722Z,108.77
2018-12-14T17:32:55.502Z,128.57
2018-12-14T17:35:24.153Z,125.30
2018-12-14T17:37:53.154Z,138.73
2018-12-14T17:40:21.979Z,152.00
2018-12-14T17:42:50.596Z,117.87
2018-12-14T17:45:19.160Z,127.60
2018-12-14T17:47:47.917Z,117.33
2018-12-14T17:50:16.725Z,112.57
2018-12-14T17:52:45.401Z,99.20
2018-12-14T17:55:14.012Z,147.80
2018-12-14T17:57:42.716Z,147.03
2018-12-14T18:00:11.967Z,170.57
2018-12-14T18:02:42.059Z,124.00
2018-12-14T18:05:10.643Z,138.57
2018-12-14T18:07:40.180Z,193.93
2018-12-14T18:10:08.917Z,117.93
2018-12-14T18:12:37.522Z,150.27
2018-12-14T18:15:06.783Z,109.80
2018-12-14T18:17:35.591Z,121.53
2018-12-14T18:20:05.354Z,123.00
2018-12-14T18:22:34.019Z,91.50
2018-12-14T18:25:02.977Z,84.47
2018-12-14T18:27:31.586Z,76.13
2018-12-14T18:30:00.626Z,84.23
2018-12-14T18:32:29.545Z,80.10
2018-12-14T18:34:59.458Z,87.53
2018-12-14T18:37:28.339Z,87.77
2018-12-14T18:39:57.094Z,101.83
2018-12-14T18:42:26.135Z,87.87
2018-12-14T18:44:55.241Z,89.07
2018-12-14T18:47:24.324Z,84.50
2018-12-14T18:49:53.209Z,90.83
2018-12-14T18:52:21.846Z,83.70
2018-12-14T18:54:50.683Z,88.80
2018-12-14T18:57:19.271Z,89.43
2018-12-14T18:59:48.401Z,95.03
2018-12-14T19:02:17.153Z,95.87
2018-12-14T19:04:46.090Z,93.23
2018-12-14T19:07:14.956Z,80.53
2018-12-14T19:09:43.703Z,82.83
2018-12-14T19:12:12.553Z,81.50
2018-12-14T19:14:41.395Z,79.17
2018-12-14T19:17:10.073Z,85.97
2018-12-14T19:19:38.639Z,105.73
2018-12-14T19:22:07.503Z,85.50
2018-12-14T19:24:36.349Z,91.73
2018-12-14T19:27:05.204Z,86.53
2018-12-14T19:29:33.924Z,96.97
2018-12-14T19:32:02.659Z,98.50
2018-12-14T19:34:31.629Z,99.80
2018-12-14T19:37:00.427Z,93.23
2018-12-14T19:39:29.379Z,87.17
2018-12-14T19:41:58.274Z,90.73
2018-12-14T19:44:27.282Z,87.13
2018-12-14T19:46:56.108Z,94.00
2018-12-14T19:49:24.866Z,103.07
2018-12-14T19:51:53.589Z,98.27
2018-12-14T19:54:22.523Z,101.93
2018-12-14T19:56:51.538Z,82.87
2018-12-14T19:59:20.285Z,83.60
2018-12-14T20:01:49.197Z,79.37
2018-12-14T20:04:18.127Z,77.87
2018-12-14T20:06:48.193Z,80.40
2018-12-14T20:09:17.644Z,83.57
2018-12-14T20:11:51.756Z,85.40
2018-12-14T20:14:21.959Z,88.87
2018-12-14T20:16:54.363Z,88.53
2018-12-14T20:19:23.406Z,99.87
2018-12-14T20:21:52.518Z,94.83
2018-12-14T20:24:21.292Z,124.13
2018-12-14T20:26:51.167Z,129.03
2018-12-14T20:29:20.486Z,137.47
2018-12-14T20:31:53.006Z,149.50
2018-12-14T20:34:23.450Z,122.83
2018-12-14T20:37:05.959Z,132.30
2018-12-14T20:39:36.199Z,83.50
2018-12-14T20:42:06.613Z,90.50
2018-12-14T20:44:36.960Z,91.23
2018-12-14T20:47:06.363Z,96.80
2018-12-14T20:49:37.774Z,99.63
2018-12-14T20:52:12.235Z,104.13
2018-12-14T20:54:41.475Z,98.83
2018-12-14T20:57:11.774Z,89.30
2018-12-14T20:59:53.909Z,88.33
2018-12-14T21:02:24.008Z,92.53
2018-12-14T21:05:06.883Z,89.73
2018-12-14T21:07:36.655Z,85.60
2018-12-14T21:10:06.731Z,79.13
2018-12-14T21:12:36.484Z,82.57
2018-12-14T21:15:06.904Z,83.20
2018-12-14T21:17:37.713Z,85.37
2018-12-14T21:20:07.901Z,83.97
2018-12-14T21:22:37.861Z,91.17
2018-12-14T21:25:08.857Z,86.47
2018-12-14T21:27:39.650Z,79.90
2018-12-14T21:30:10.104Z,86.07
2018-12-14T21:32:39.649Z,80.03
2018-12-14T21:35:08.789Z,81.10
2018-12-14T21:37:38.124Z,83.97
2018-12-14T21:40:07.823Z,85.13
2018-12-14T21:42:36.974Z,82.13
2018-12-14T21:45:06.443Z,85.37
2018-12-14T21:47:35.737Z,82.47
2018-12-14T21:50:08.551Z,84.60
2018-12-14T21:53:03.661Z,82.33
2018-12-14T21:55:33.849Z,82.10
2018-12-14T21:58:03.489Z,85.30
2018-12-14T22:00:36.160Z,83.93
2018-12-14T22:03:06.806Z,82.97
2018-12-14T22:05:41.331Z,80.83
2018-12-14T22:08:10.680Z,78.57
2018-12-14T22:10:40.181Z,83.07
2018-12-14T22:13:10.081Z,85.10
2018-12-14T22:15:38.961Z,80.00
2018-12-14T22:18:08.467Z,76.83
2018-12-14T22:20:39.467Z,77.63
2018-12-14T22:23:08.915Z,73.73
2018-12-14T22:25:37.940Z,74.20
2018-12-14T22:28:08.005Z,77.93
2018-12-14T22:30:39.551Z,79.30
2018-12-14T22:33:09.361Z,73.87
2018-12-14T22:35:39.613Z,75.73
2018-12-14T22:38:11.751Z,76.50
2018-12-14T22:40:41.066Z,78.83
2018-12-14T22:43:11.782Z,78.73
2018-12-14T22:45:43.265Z,80.17
2018-12-14T22:48:13.629Z,75.50
2018-12-14T22:51:03.069Z,83.50
2018-12-14T22:53:33.455Z,79.07
2018-12-14T22:56:02.831Z,83.30
2018-12-14T22:58:32.679Z,76.37
2018-12-14T23:01:12.071Z,77.23
2018-12-14T23:03:43.404Z,69.60
2018-12-14T23:06:14.002Z,74.13
2018-12-14T23:08:44.448Z,66.93
2018-12-14T23:11:14.577Z,68.17
2018-12-14T23:13:44.154Z,75.80
2018-12-14T23:16:16.020Z,70.00
2018-12-14T23:18:46.315Z,67.83
2018-12-14T23:21:16.349Z,63.03
2018-12-14T23:23:47.061Z,66.87
2018-12-14T23:26:16.088Z,65.00
2018-12-14T23:28:46.698Z,65.53
2018-12-14T23:31:16.851Z,60.80
2018-12-14T23:33:48.851Z,64.67
2018-12-14T23:36:18.736Z,62.67
2018-12-14T23:38:51.635Z,60.43
2018-12-14T23:41:23.398Z,65.67
2018-12-14T23:43:53.433Z,63.90
2018-12-14T23:46:24.006Z,59.07
2018-12-14T23:48:54.130Z,54.37
2018-12-14T23:51:24.040Z,57.63
2018-12-14T23:53:54.047Z,54.33
2018-12-14T23:56:23.074Z,56.87
2018-12-14T23:58:53.439Z,50.80
